createdAt,value
2023-04-20T00:01:03.480Z,72.12
2023-04-20T00:03:32.311Z,72.27
2023-04-20T00:05:56.015Z,72.34
2023-04-20T00:08:19.853Z,72.32
2023-04-20T00:10:44.432Z,72.34
2023-04-20T00:13:11.348Z,72.41
2023-04-20T00:15:44.487Z,72.43
2023-04-20T00:18:27.300Z,72.46
2023-04-20T00:21:11.042Z,72.59
2023-04-20T00:23:38.190Z,72.62
2023-04-20T00:26:21.959Z,72.82
2023-04-20T00:28:56.790Z,73.02
2023-04-20T00:31:23.248Z,72.86
2023-04-20T00:34:07.349Z,73.09
2023-04-20T00:36:51.302Z,73.23
2023-04-20T00:39:16.923Z,73.34
2023-04-20T00:42:05.869Z,73.33
2023-04-20T00:44:33.319Z,73.38
2023-04-20T00:47:17.273Z,73.46
2023-04-20T00:49:41.128Z,73.56
2023-04-20T00:52:05.914Z,73.55
2023-04-20T00:54:32.777Z,73.55
2023-04-20T00:57:23.299Z,73.68
2023-04-20T00:59:56.928Z,73.75
2023-04-20T01:02:41.160Z,73.85
2023-04-20T01:05:08.717Z,73.82
2023-04-20T01:07:32.303Z,74.03
2023-04-20T01:09:58.430Z,74.04
2023-04-20T01:12:21.803Z,74.07
2023-04-20T01:14:48.391Z,74.19
2023-04-20T01:17:14.403Z,74.13
2023-04-20T01:19:44.090Z,74.22
2023-04-20T01:22:07.672Z,74.23
2023-04-20T01:24:34.141Z,74.22
2023-04-20T01:26:57.890Z,74.05
2023-04-20T01:29:21.530Z,74.11
2023-04-20T01:31:47.694Z,74.14
2023-04-20T01:34:11.300Z,74.04
2023-04-20T01:36:55.887Z,74.07
2023-04-20T01:39:22.064Z,74.01
2023-04-20T01:41:47.888Z,74.08
2023-04-20T01:44:14.580Z,74.11
2023-04-20T01:46:39.146Z,74.22
2023-04-20T01:49:16.221Z,74.08
2023-04-20T01:51:40.069Z,73.96
2023-04-20T01:54:03.839Z,74.03
2023-04-20T01:56:28.091Z,73.93
2023-04-20T01:58:54.722Z,74.02
2023-04-20T02:01:29.559Z,73.97
2023-04-20T02:03:53.455Z,73.93
2023-04-20T02:06:29.358Z,74.03
2023-04-20T02:08:53.062Z,74.02
2023-04-20T02:11:23.777Z,74.09
2023-04-20T02:14:07.924Z,74.07
2023-04-20T02:16:36.020Z,74.10
2023-04-20T02:19:02.858Z,74.03
2023-04-20T02:21:27.476Z,74.07
2023-04-20T02:23:51.111Z,74.07
2023-04-20T02:26:16.606Z,74.12
2023-04-20T02:28:49.518Z,73.92
2023-04-20T02:31:13.433Z,73.95
2023-04-20T02:33:41.557Z,73.87
2023-04-20T02:36:06.501Z,73.82
2023-04-20T02:38:29.862Z,73.92
2023-04-20T02:40:53.338Z,73.96
2023-04-20T02:43:17.213Z,73.91
2023-04-20T02:45:40.814Z,73.92
2023-04-20T02:48:05.764Z,73.85
2023-04-20T02:50:49.794Z,73.99
2023-04-20T02:53:16.726Z,73.83
2023-04-20T02:55:49.858Z,73.77
2023-04-20T02:58:26.059Z,73.82
2023-04-20T03:01:21.776Z,73.75
2023-04-20T03:03:47.378Z,73.72
2023-04-20T03:06:11.463Z,73.73
2023-04-20T03:08:48.652Z,73.72
2023-04-20T03:11:41.335Z,73.85
2023-04-20T03:14:10.094Z,73.75
2023-04-20T03:16:33.899Z,73.68
2023-04-20T03:18:57.532Z,73.81
2023-04-20T03:21:21.181Z,73.72
2023-04-20T03:23:44.669Z,73.78
2023-04-20T03:26:20.724Z,73.77
2023-04-20T03:29:03.197Z,73.81
2023-04-20T03:31:29.775Z,73.91
2023-04-20T03:33:56.024Z,73.86
2023-04-20T03:36:40.111Z,73.93
2023-04-20T03:39:06.769Z,73.94
2023-04-20T03:41:50.739Z,73.94
2023-04-20T03:44:24.357Z,73.89
2023-04-20T03:46:50.413Z,73.89
2023-04-20T03:49:34.999Z,73.95
2023-04-20T03:52:18.883Z,73.74
2023-04-20T03:54:52.036Z,73.78
2023-04-20T03:57:16.660Z,73.80
2023-04-20T04:00:00.997Z,73.93
2023-04-20T04:02:28.429Z,73.87
2023-04-20T04:04:55.576Z,73.87
2023-04-20T04:07:23.777Z,73.93
2023-04-20T04:09:50.518Z,73.96
2023-04-20T04:12:31.250Z,74.07
2023-04-20T04:15:08.439Z,74.05
2023-04-20T04:17:55.042Z,74.02
2023-04-20T04:20:22.245Z,73.98
2023-04-20T04:22:46.398Z,73.99
2023-04-20T04:25:24.498Z,74.05
2023-04-20T04:27:48.179Z,74.02
2023-04-20T04:30:14.215Z,73.98
2023-04-20T04:32:41.282Z,73.93
2023-04-20T04:35:06.286Z,74.00
2023-04-20T04:37:30.335Z,74.00
2023-04-20T04:40:14.690Z,74.27
2023-04-20T04:42:38.820Z,74.10
2023-04-20T04:45:04.039Z,73.95
2023-04-20T04:47:29.935Z,73.99
2023-04-20T04:49:55.833Z,73.82
2023-04-20T04:52:19.511Z,73.69
2023-04-20T04:54:43.079Z,73.67
2023-04-20T04:57:06.616Z,73.50
2023-04-20T04:59:30.081Z,73.34
2023-04-20T05:01:56.253Z,73.18
2023-04-20T05:04:20.052Z,73.02
2023-04-20T05:07:04.081Z,73.03
2023-04-20T05:09:32.659Z,72.91
2023-04-20T05:11:56.891Z,72.84
2023-04-20T05:14:20.550Z,72.71
2023-04-20T05:16:46.528Z,72.61
2023-04-20T05:19:12.226Z,72.53
2023-04-20T05:21:37.536Z,72.41
2023-04-20T05:24:03.844Z,72.25
2023-04-20T05:26:27.460Z,72.08
2023-04-20T05:28:53.707Z,71.91
2023-04-20T05:31:26.065Z,71.76
2023-04-20T05:33:49.873Z,71.52
2023-04-20T05:36:22.244Z,71.48
2023-04-20T05:38:59.142Z,71.06
2023-04-20T05:41:26.830Z,71.50
2023-04-20T05:43:50.456Z,70.39
2023-04-20T05:46:15.984Z,68.43
2023-04-20T05:48:39.546Z,66.38
2023-04-20T05:51:03.055Z,64.72
2023-04-20T05:53:26.660Z,63.09
2023-04-20T05:55:50.184Z,61.76
2023-04-20T05:58:13.628Z,60.27
2023-04-20T06:00:37.165Z,59.42
2023-04-20T06:03:01.125Z,59.00
2023-04-20T06:05:24.817Z,58.14
2023-04-20T06:07:48.691Z,57.11
2023-04-20T06:10:12.938Z,55.83
2023-04-20T06:12:36.443Z,54.54
2023-04-20T06:14:59.844Z,53.71
2023-04-20T06:17:23.526Z,53.62
2023-04-20T06:19:47.222Z,51.47
2023-04-20T06:22:16.180Z,49.98
2023-04-20T06:24:41.654Z,48.97
2023-04-20T06:27:05.763Z,46.63
2023-04-20T06:29:29.206Z,44.32
2023-04-20T06:31:52.722Z,41.80
2023-04-20T06:34:16.110Z,40.38
2023-04-20T06:36:43.180Z,38.90
2023-04-20T06:39:07.090Z,38.00
2023-04-20T06:41:30.497Z,36.06
2023-04-20T06:44:02.156Z,35.24
2023-04-20T06:46:25.763Z,34.23
2023-04-20T06:48:49.306Z,33.02
2023-04-20T06:51:13.792Z,32.38
2023-04-20T06:53:37.608Z,31.46
2023-04-20T06:56:01.417Z,30.66
2023-04-20T06:58:25.030Z,29.52
2023-04-20T07:00:48.975Z,29.04
2023-04-20T07:03:12.556Z,28.59
2023-04-20T07:05:37.500Z,27.74
2023-04-20T07:08:01.814Z,26.86
2023-04-20T07:10:25.632Z,25.58
2023-04-20T07:12:48.960Z,25.65
2023-04-20T07:15:13.262Z,25.21
2023-04-20T07:17:36.642Z,24.36
2023-04-20T07:20:06.644Z,23.61
2023-04-20T07:22:30.297Z,23.32
2023-04-20T07:24:53.605Z,23.62
2023-04-20T07:27:17.524Z,23.13
2023-04-20T07:29:40.991Z,22.26
2023-04-20T07:32:05.091Z,21.72
2023-04-20T07:34:28.602Z,21.68
2023-04-20T07:36:52.245Z,21.96
2023-04-20T07:39:16.112Z,21.79
2023-04-20T07:41:39.841Z,21.77
2023-04-20T07:44:05.673Z,22.13
2023-04-20T07:46:29.073Z,22.54
2023-04-20T07:48:52.547Z,22.66
2023-04-20T07:51:16.156Z,22.26
2023-04-20T07:53:39.616Z,21.85
2023-04-20T07:56:03.099Z,21.76
2023-04-20T07:58:26.612Z,21.44
2023-04-20T08:00:49.941Z,20.99
2023-04-20T08:03:13.514Z,21.09
2023-04-20T08:05:40.243Z,20.92
2023-04-20T08:08:03.842Z,19.96
2023-04-20T08:10:27.181Z,19.83
2023-04-20T08:12:52.928Z,19.13
2023-04-20T08:15:16.490Z,19.17
2023-04-20T08:17:39.996Z,19.95
2023-04-20T08:20:05.385Z,19.58
2023-04-20T08:22:29.645Z,19.40
2023-04-20T08:24:53.053Z,19.88
2023-04-20T08:27:16.677Z,19.67
2023-04-20T08:29:40.514Z,19.88
2023-04-20T08:32:08.284Z,20.18
2023-04-20T08:34:32.048Z,19.89
2023-04-20T08:36:55.455Z,19.71
2023-04-20T08:39:23.446Z,18.53
2023-04-20T08:41:47.696Z,19.29
2023-04-20T08:44:11.266Z,19.04
2023-04-20T08:46:35.471Z,18.95
2023-04-20T08:49:01.526Z,19.55
2023-04-20T08:51:25.072Z,19.53
2023-04-20T08:53:48.410Z,19.40
2023-04-20T08:56:12.015Z,19.68
2023-04-20T08:58:37.863Z,19.96
2023-04-20T09:01:01.650Z,19.91
2023-04-20T09:03:33.885Z,19.61
2023-04-20T09:05:57.454Z,19.62
2023-04-20T09:08:20.906Z,19.92
2023-04-20T09:10:45.139Z,19.96
2023-04-20T09:13:08.900Z,19.66
2023-04-20T09:15:32.762Z,20.02
2023-04-20T09:17:57.314Z,20.47
2023-04-20T09:20:29.329Z,20.93
2023-04-20T09:22:53.765Z,21.24
2023-04-20T09:25:18.394Z,21.20
2023-04-20T09:27:42.022Z,21.65
2023-04-20T09:30:08.678Z,22.28
2023-04-20T09:32:33.080Z,22.18
2023-04-20T09:34:56.777Z,22.43
2023-04-20T09:37:20.234Z,22.95
2023-04-20T09:39:45.142Z,23.44
2023-04-20T09:42:12.987Z,23.84
2023-04-20T09:44:38.708Z,23.76
2023-04-20T09:47:04.123Z,23.71
2023-04-20T09:49:27.799Z,23.88
2023-04-20T09:51:51.897Z,22.89
2023-04-20T09:54:16.559Z,22.22
2023-04-20T09:56:41.091Z,23.25
2023-04-20T09:59:05.016Z,23.44
2023-04-20T10:01:33.012Z,23.59
2023-04-20T10:03:58.684Z,23.13
2023-04-20T10:06:24.151Z,23.55
2023-04-20T10:08:49.863Z,24.03
2023-04-20T10:11:25.280Z,23.93
2023-04-20T10:13:49.600Z,22.92
2023-04-20T10:16:19.569Z,22.17
2023-04-20T10:18:43.169Z,22.83
2023-04-20T10:21:08.899Z,23.93
2023-04-20T10:23:32.639Z,24.04
2023-04-20T10:25:57.561Z,24.40
2023-04-20T10:28:21.302Z,24.13
2023-04-20T10:30:52.972Z,23.67
2023-04-20T10:33:17.551Z,24.23
2023-04-20T10:35:47.022Z,24.08
2023-04-20T10:38:11.607Z,24.06
2023-04-20T10:40:35.721Z,25.24
2023-04-20T10:43:01.444Z,25.30
2023-04-20T10:45:35.848Z,25.26
2023-04-20T10:48:06.017Z,23.94
2023-04-20T10:50:29.502Z,22.57
2023-04-20T10:52:53.146Z,23.15
2023-04-20T10:55:21.835Z,23.17
2023-04-20T10:57:46.184Z,23.82
2023-04-20T11:00:18.426Z,24.61
2023-04-20T11:02:51.006Z,25.12
2023-04-20T11:05:15.776Z,25.23
2023-04-20T11:07:54.570Z,25.11
2023-04-20T11:10:18.712Z,24.42
2023-04-20T11:12:42.155Z,24.52
2023-04-20T11:15:09.353Z,24.49
2023-04-20T11:17:33.999Z,23.84
2023-04-20T11:20:10.282Z,23.78
2023-04-20T11:22:34.127Z,23.31
2023-04-20T11:25:05.226Z,23.05
2023-04-20T11:27:28.676Z,22.82
2023-04-20T11:29:59.214Z,22.74
2023-04-20T11:32:23.211Z,23.67
2023-04-20T11:34:50.265Z,23.69
2023-04-20T11:37:17.281Z,24.67
2023-04-20T11:39:41.263Z,25.03
2023-04-20T11:42:06.019Z,24.76
2023-04-20T11:44:29.988Z,24.81
2023-04-20T11:46:56.570Z,24.87
2023-04-20T11:49:21.302Z,24.36
2023-04-20T11:51:45.788Z,24.86
2023-04-20T11:54:09.446Z,25.13
2023-04-20T11:56:33.037Z,25.62
2023-04-20T11:58:57.426Z,25.64
2023-04-20T12:01:20.934Z,25.36
2023-04-20T12:03:47.101Z,24.79
2023-04-20T12:06:12.218Z,24.37
2023-04-20T12:08:36.517Z,24.26
2023-04-20T12:11:03.032Z,24.22
2023-04-20T12:13:26.828Z,24.39
2023-04-20T12:15:50.373Z,24.40
2023-04-20T12:18:14.032Z,24.87
2023-04-20T12:20:37.696Z,23.50
2023-04-20T12:23:01.853Z,22.86
2023-04-20T12:25:25.258Z,23.17
2023-04-20T12:27:50.006Z,23.72
2023-04-20T12:30:17.467Z,23.95
2023-04-20T12:32:41.034Z,23.86
2023-04-20T12:35:05.612Z,24.20
2023-04-20T12:37:29.064Z,24.25
2023-04-20T12:39:52.737Z,24.50
2023-04-20T12:42:16.430Z,24.63
2023-04-20T12:44:40.265Z,24.48
2023-04-20T12:47:03.771Z,24.24
2023-04-20T12:49:27.825Z,23.49
2023-04-20T12:51:51.350Z,23.63
2023-04-20T12:54:14.782Z,23.40
2023-04-20T12:56:38.409Z,24.05
2023-04-20T12:59:02.338Z,23.67
2023-04-20T13:01:26.185Z,22.55
2023-04-20T13:03:51.747Z,22.68
2023-04-20T13:06:18.252Z,22.97
2023-04-20T13:08:41.884Z,23.17
2023-04-20T13:11:06.300Z,23.50
2023-04-20T13:13:29.730Z,23.70
2023-04-20T13:15:54.668Z,23.74
2023-04-20T13:18:19.543Z,23.69
2023-04-20T13:20:42.901Z,23.81
2023-04-20T13:23:06.443Z,23.87
2023-04-20T13:25:32.849Z,23.80
2023-04-20T13:27:56.607Z,23.77
2023-04-20T13:30:21.838Z,24.11
2023-04-20T13:32:46.649Z,24.42
2023-04-20T13:35:11.772Z,24.49
2023-04-20T13:37:36.240Z,24.90
2023-04-20T13:40:00.977Z,25.15
2023-04-20T13:42:24.838Z,25.53
2023-04-20T13:44:48.368Z,25.79
2023-04-20T13:47:11.960Z,26.18
2023-04-20T13:49:35.430Z,25.91
2023-04-20T13:51:58.894Z,25.92
2023-04-20T13:54:22.836Z,26.07
2023-04-20T13:56:46.380Z,25.93
2023-04-20T13:59:09.795Z,25.84
2023-04-20T14:01:33.612Z,25.42
2023-04-20T14:03:57.219Z,25.20
2023-04-20T14:06:21.408Z,24.85
2023-04-20T14:08:45.400Z,24.76
2023-04-20T14:11:08.926Z,24.88
2023-04-20T14:13:32.484Z,24.92
2023-04-20T14:15:56.840Z,25.32
2023-04-20T14:18:20.349Z,25.51
2023-04-20T14:20:43.805Z,25.29
2023-04-20T14:23:09.428Z,24.90
2023-04-20T14:25:33.267Z,24.81
2023-04-20T14:27:56.669Z,24.57
2023-04-20T14:30:20.450Z,24.74
2023-04-20T14:32:54.048Z,24.89
2023-04-20T14:35:17.758Z,25.10
2023-04-20T14:37:42.850Z,25.34
2023-04-20T14:40:08.596Z,25.32
2023-04-20T14:42:33.863Z,25.30
2023-04-20T14:44:57.529Z,25.21
2023-04-20T14:47:21.991Z,24.93
2023-04-20T14:49:45.424Z,25.02
2023-04-20T14:52:09.039Z,24.85
2023-04-20T14:54:32.454Z,24.64
2023-04-20T14:56:58.710Z,24.66
2023-04-20T14:59:23.974Z,25.21
2023-04-20T15:02:01.272Z,25.58
2023-04-20T15:04:27.082Z,25.91
2023-04-20T15:06:50.856Z,25.60
2023-04-20T15:09:14.772Z,25.63
2023-04-20T15:11:38.277Z,25.53
2023-04-20T15:14:02.117Z,25.76
2023-04-20T15:16:25.787Z,25.55
2023-04-20T15:18:52.199Z,25.61
2023-04-20T15:21:15.638Z,25.97
2023-04-20T15:23:39.023Z,25.79
2023-04-20T15:26:02.999Z,25.92
2023-04-20T15:28:26.489Z,25.85
2023-04-20T15:30:49.901Z,25.45
2023-04-20T15:33:13.557Z,25.36
2023-04-20T15:35:36.966Z,25.56
2023-04-20T15:38:00.732Z,25.95
2023-04-20T15:40:26.559Z,25.82
2023-04-20T15:42:55.023Z,25.68
2023-04-20T15:45:19.464Z,26.20
2023-04-20T15:47:43.195Z,27.58
2023-04-20T15:50:08.474Z,27.04
2023-04-20T15:52:32.266Z,27.91
2023-04-20T15:54:56.103Z,28.00
2023-04-20T15:57:19.504Z,28.16
2023-04-20T15:59:43.098Z,27.82
2023-04-20T16:02:16.081Z,27.89
2023-04-20T16:04:39.985Z,28.14
2023-04-20T16:07:03.780Z,27.97
2023-04-20T16:09:27.471Z,27.90
2023-04-20T16:11:50.924Z,28.06
2023-04-20T16:14:14.231Z,27.72
2023-04-20T16:16:37.995Z,27.76
2023-04-20T16:19:01.419Z,27.79
2023-04-20T16:21:25.204Z,27.08
2023-04-20T16:23:53.037Z,27.77
2023-04-20T16:26:16.928Z,28.14
2023-04-20T16:28:40.932Z,28.52
2023-04-20T16:31:05.216Z,28.09
2023-04-20T16:33:31.456Z,28.06
2023-04-20T16:35:54.908Z,27.99
2023-04-20T16:38:26.130Z,28.24
2023-04-20T16:40:50.264Z,27.94
2023-04-20T16:43:13.808Z,28.63
2023-04-20T16:45:45.121Z,29.33
2023-04-20T16:48:29.089Z,28.96
2023-04-20T16:50:53.249Z,29.37
2023-04-20T16:53:16.922Z,29.47
2023-04-20T16:55:40.394Z,29.60
2023-04-20T16:58:06.494Z,30.01
2023-04-20T17:00:31.374Z,29.98
2023-04-20T17:03:00.761Z,30.26
2023-04-20T17:05:25.287Z,30.82
2023-04-20T17:07:48.789Z,30.23
2023-04-20T17:10:12.712Z,30.36
2023-04-20T17:12:36.394Z,30.74
2023-04-20T17:15:00.373Z,31.25
2023-04-20T17:17:25.418Z,31.41
2023-04-20T17:19:49.466Z,31.27
2023-04-20T17:22:16.099Z,31.35
2023-04-20T17:24:48.260Z,31.91
2023-04-20T17:27:22.456Z,31.76
2023-04-20T17:29:47.069Z,31.53
2023-04-20T17:32:12.929Z,31.66
2023-04-20T17:34:37.012Z,31.48
2023-04-20T17:37:00.906Z,31.47
2023-04-20T17:39:25.290Z,31.44
2023-04-20T17:41:48.873Z,31.93
2023-04-20T17:44:12.672Z,31.91
2023-04-20T17:46:36.214Z,32.14
2023-04-20T17:49:00.274Z,32.14
2023-04-20T17:51:23.872Z,32.22
2023-04-20T17:53:47.312Z,32.38
2023-04-20T17:56:11.256Z,32.63
2023-04-20T17:58:38.055Z,32.78
2023-04-20T18:01:10.051Z,32.74
2023-04-20T18:03:34.037Z,32.88
2023-04-20T18:05:57.501Z,32.98
2023-04-20T18:08:23.603Z,33.18
2023-04-20T18:10:56.776Z,33.36
2023-04-20T18:13:40.823Z,33.43
2023-04-20T18:16:23.474Z,33.51
2023-04-20T18:18:47.212Z,33.61
2023-04-20T18:21:13.480Z,33.83
2023-04-20T18:23:48.923Z,33.86
2023-04-20T18:26:17.209Z,33.92
2023-04-20T18:28:43.588Z,33.99
2023-04-20T18:31:07.311Z,34.15
2023-04-20T18:33:30.954Z,34.28
2023-04-20T18:35:57.466Z,34.42
2023-04-20T18:38:21.150Z,34.53
2023-04-20T18:40:45.700Z,34.60
2023-04-20T18:43:09.209Z,34.77
2023-04-20T18:45:35.881Z,34.88
2023-04-20T18:48:19.438Z,34.96
2023-04-20T18:50:43.772Z,35.02
2023-04-20T18:53:08.136Z,35.16
2023-04-20T18:55:39.830Z,35.27
2023-04-20T18:58:12.570Z,35.35
2023-04-20T19:00:39.224Z,35.65
2023-04-20T19:03:26.809Z,35.48
2023-04-20T19:06:10.986Z,35.77
2023-04-20T19:08:55.393Z,36.04
2023-04-20T19:11:39.490Z,36.12
2023-04-20T19:14:23.767Z,36.16
2023-04-20T19:17:08.219Z,36.32
2023-04-20T19:19:41.921Z,36.42
2023-04-20T19:22:05.516Z,36.51
2023-04-20T19:24:29.423Z,36.52
2023-04-20T19:26:53.620Z,36.45
2023-04-20T19:29:36.427Z,36.66
2023-04-20T19:32:00.229Z,36.60
2023-04-20T19:34:44.150Z,36.78
2023-04-20T19:37:07.904Z,36.88
2023-04-20T19:39:38.777Z,36.99
2023-04-20T19:42:02.310Z,37.00
2023-04-20T19:44:28.653Z,37.29
2023-04-20T19:47:12.617Z,37.44
2023-04-20T19:49:36.862Z,37.47
2023-04-20T19:52:00.542Z,37.60
2023-04-20T19:54:24.170Z,37.54
2023-04-20T19:56:58.641Z,37.84
2023-04-20T19:59:42.697Z,37.89
2023-04-20T20:02:09.444Z,37.93
2023-04-20T20:04:36.766Z,38.04
2023-04-20T20:07:21.137Z,38.06
2023-04-20T20:09:47.887Z,38.23
2023-04-20T20:12:32.228Z,38.21
2023-04-20T20:15:05.752Z,38.43
2023-04-20T20:17:54.959Z,38.47
2023-04-20T20:20:39.560Z,38.57
2023-04-20T20:23:04.194Z,38.56
2023-04-20T20:25:30.679Z,38.74
2023-04-20T20:27:54.159Z,38.69
2023-04-20T20:30:18.130Z,38.96
2023-04-20T20:32:42.138Z,39.01
2023-04-20T20:35:10.877Z,38.99
2023-04-20T20:37:35.540Z,39.22
2023-04-20T20:39:59.479Z,39.25
2023-04-20T20:42:22.879Z,39.34
2023-04-20T20:45:11.801Z,39.50
2023-04-20T20:47:55.797Z,39.52
2023-04-20T20:50:32.187Z,39.67
2023-04-20T20:53:16.956Z,39.82
2023-04-20T20:55:43.713Z,40.10
2023-04-20T20:58:17.322Z,40.10
2023-04-20T21:01:01.915Z,40.28
2023-04-20T21:03:46.520Z,40.32
2023-04-20T21:06:32.160Z,40.42
2023-04-20T21:09:17.089Z,40.58
2023-04-20T21:11:56.225Z,40.80
2023-04-20T21:14:29.083Z,40.89
2023-04-20T21:17:13.490Z,40.91
2023-04-20T21:19:57.500Z,41.09
2023-04-20T21:22:42.178Z,41.30
2023-04-20T21:25:07.804Z,41.41
2023-04-20T21:27:52.165Z,41.50
2023-04-20T21:30:35.958Z,41.48
2023-04-20T21:33:08.729Z,41.46
2023-04-20T21:35:52.576Z,41.66
2023-04-20T21:38:36.927Z,41.88
2023-04-20T21:41:00.503Z,41.90
2023-04-20T21:43:24.281Z,42.10
2023-04-20T21:45:51.039Z,41.98
2023-04-20T21:48:15.060Z,42.13
2023-04-20T21:50:38.852Z,42.16
2023-04-20T21:53:02.974Z,42.21
2023-04-20T21:55:26.502Z,42.23
2023-04-20T21:58:10.461Z,42.47
2023-04-20T22:00:54.395Z,42.58
2023-04-20T22:03:38.893Z,42.54
2023-04-20T22:06:23.064Z,42.69
2023-04-20T22:09:07.453Z,42.95
2023-04-20T22:11:35.912Z,42.80
2023-04-20T22:14:10.280Z,42.97
2023-04-20T22:16:37.186Z,43.12
2023-04-20T22:19:21.893Z,43.30
2023-04-20T22:22:05.827Z,43.54
2023-04-20T22:24:39.952Z,43.58
2023-04-20T22:27:24.054Z,43.64
2023-04-20T22:29:57.057Z,43.74
2023-04-20T22:32:24.049Z,43.88
2023-04-20T22:35:09.621Z,44.05
2023-04-20T22:37:33.326Z,44.17
2023-04-20T22:40:17.354Z,44.17
2023-04-20T22:43:01.117Z,44.53
2023-04-20T22:45:45.452Z,44.57
2023-04-20T22:48:29.652Z,44.68
2023-04-20T22:51:16.748Z,44.75
2023-04-20T22:54:01.869Z,44.80
2023-04-20T22:56:45.879Z,44.96
2023-04-20T22:59:29.618Z,45.05
2023-04-20T23:02:14.280Z,45.31
2023-04-20T23:04:56.996Z,45.37
2023-04-20T23:07:41.224Z,45.51
2023-04-20T23:10:15.997Z,45.64
2023-04-20T23:12:59.939Z,45.59
2023-04-20T23:15:43.896Z,45.80
2023-04-20T23:18:18.608Z,46.03
2023-04-20T23:21:02.309Z,46.01
2023-04-20T23:23:40.421Z,46.14
2023-04-20T23:26:24.914Z,46.34
2023-04-20T23:29:08.972Z,46.45
2023-04-20T23:31:52.744Z,46.51
2023-04-20T23:34:37.327Z,46.73
2023-04-20T23:37:21.131Z,46.88
2023-04-20T23:39:55.479Z,46.87
2023-04-20T23:42:30.415Z,47.00
2023-04-20T23:45:14.470Z,47.18
2023-04-20T23:47:40.591Z,47.35
2023-04-20T23:50:13.693Z,47.48
2023-04-20T23:52:57.667Z,47.59
2023-04-20T23:55:41.564Z,47.67
2023-04-20T23:58:11.273Z,47.80
